Time;durP1;ratioP1;P1;durP2;ratioP2;P2;SDS_P1;SDS_P2;PMS_P1;PMS_P2;Temp;Humidity;BMP_temperature;BMP_pressure;BME280_temperature;BME280_humidity;BME280_pressure;Samples;Min_cycle;Max_cycle;Signal;HPM_P1;HPM_P2
2024/01/26 00:00:51;;;;;;;0.10;0.10;;;8.50;94.80;;;;;;4970604;28;20090;-73
2024/01/26 00:03:17;;;;;;;0.22;0.22;;;8.40;94.70;;;;;;4969822;28;20054;-73
2024/01/26 00:05:43;;;;;;;1.17;1.08;;;8.60;94.80;;;;;;4968749;28;20047;-73
2024/01/26 00:08:08;;;;;;;0.00;0.00;;;8.50;94.80;;;;;;4970340;28;20038;-73
2024/01/26 00:10:34;;;;;;;0.00;0.00;;;8.60;94.80;;;;;;4970196;28;20113;-73
2024/01/26 00:12:59;;;;;;;0.10;0.10;;;8.60;94.80;;;;;;4970989;28;20492;-73
2024/01/26 00:15:26;;;;;;;0.00;0.00;;;8.60;94.70;;;;;;4969971;28;20057;-73
2024/01/26 00:17:52;;;;;;;0.00;0.00;;;8.60;94.80;;;;;;4970300;28;20055;-73
2024/01/26 00:20:18;;;;;;;0.10;0.10;;;8.70;94.80;;;;;;4969679;28;20046;-73
2024/01/26 00:22:43;;;;;;;0.00;0.00;;;8.70;94.80;;;;;;4972889;28;20074;-73
2024/01/26 00:25:09;;;;;;;0.10;0.10;;;8.80;94.80;;;;;;4972092;28;20054;-73
2024/01/26 00:27:35;;;;;;;0.00;0.00;;;8.80;94.70;;;;;;4969053;28;20780;-73
2024/01/26 00:30:01;;;;;;;0.10;0.10;;;8.80;94.70;;;;;;4969268;28;20061;-73
2024/01/26 00:32:27;;;;;;;0.10;0.10;;;8.80;94.60;;;;;;4968683;28;20046;-73
2024/01/26 00:34:52;;;;;;;0.00;0.00;;;8.90;94.60;;;;;;4969229;28;20081;-73
2024/01/26 00:37:18;;;;;;;0.10;0.10;;;8.90;94.50;;;;;;4968726;28;20079;-74
2024/01/26 00:39:44;;;;;;;0.05;0.05;;;8.90;94.60;;;;;;4968158;28;20038;-74
2024/01/26 00:42:09;;;;;;;0.10;0.10;;;8.90;94.50;;;;;;4969497;28;20054;-74
2024/01/26 00:44:36;;;;;;;0.10;0.10;;;9.00;94.50;;;;;;4968693;28;20050;-74
2024/01/26 00:47:03;;;;;;;1.40;1.30;;;8.90;94.50;;;;;;4969759;28;20061;-74
2024/01/26 00:49:29;;;;;;;0.00;0.00;;;9.00;94.60;;;;;;4969466;28;20587;-74
2024/01/26 00:51:55;;;;;;;0.03;0.03;;;8.90;94.60;;;;;;4969561;28;20034;-74
2024/01/26 00:54:21;;;;;;;0.00;0.00;;;8.90;94.60;;;;;;4973661;28;20053;-74
2024/01/26 00:56:47;;;;;;;0.05;0.05;;;8.90;94.50;;;;;;4968396;28;20051;-74
2024/01/26 00:59:12;;;;;;;0.00;0.00;;;8.90;94.60;;;;;;4967575;28;20047;-74
2024/01/26 01:01:38;;;;;;;0.00;0.00;;;8.90;94.50;;;;;;4969054;28;20047;-74
2024/01/26 01:04:05;;;;;;;0.00;0.00;;;8.90;94.60;;;;;;4968098;28;20488;-74
2024/01/26 01:06:31;;;;;;;0.10;0.10;;;9.00;94.60;;;;;;4968979;28;20533;-74
2024/01/26 01:08:57;;;;;;;0.00;0.00;;;8.90;94.60;;;;;;4969288;28;20034;-74
2024/01/26 01:11:22;;;;;;;0.00;0.00;;;8.90;94.60;;;;;;4968832;28;20570;-74
2024/01/26 01:13:49;;;;;;;0.10;0.10;;;8.90;94.50;;;;;;4969668;28;20162;-74
2024/01/26 01:16:17;;;;;;;0.00;0.00;;;8.90;94.60;;;;;;4982328;28;20096;-73
2024/01/26 01:18:43;;;;;;;0.03;0.03;;;8.90;94.50;;;;;;4981826;28;20047;-74
2024/01/26 01:21:09;;;;;;;0.43;0.43;;;9.00;94.50;;;;;;4968273;28;20058;-74
2024/01/26 01:23:35;;;;;;;1.00;1.00;;;9.00;94.50;;;;;;4966057;28;20061;-74
2024/01/26 01:26:01;;;;;;;0.10;0.10;;;9.00;94.40;;;;;;4960586;28;20503;-74
2024/01/26 01:28:28;;;;;;;0.00;0.00;;;8.90;94.40;;;;;;4962438;28;20047;-75
2024/01/26 01:30:54;;;;;;;0.00;0.00;;;8.90;94.40;;;;;;4957436;28;20043;-73
2024/01/26 01:33:20;;;;;;;0.00;0.00;;;8.90;94.40;;;;;;4968725;28;20047;-74
2024/01/26 01:35:46;;;;;;;0.10;0.10;;;8.90;94.40;;;;;;4967599;28;20052;-74
2024/01/26 01:38:12;;;;;;;0.03;0.03;;;8.90;94.30;;;;;;4968927;28;20513;-75
2024/01/26 01:40:39;;;;;;;0.20;0.20;;;8.90;94.20;;;;;;4968609;28;20041;-74
2024/01/26 01:43:05;;;;;;;0.00;0.00;;;8.90;94.20;;;;;;4968121;28;20109;-74
2024/01/26 01:45:30;;;;;;;0.30;0.30;;;8.80;94.20;;;;;;4976202;28;20055;-74
2024/01/26 01:47:56;;;;;;;0.10;0.10;;;8.80;94.20;;;;;;4969581;28;20074;-75
2024/01/26 01:50:22;;;;;;;0.10;0.10;;;8.90;94.10;;;;;;4969376;28;20046;-74
2024/01/26 01:52:50;;;;;;;0.03;0.03;;;8.80;94.10;;;;;;4969203;28;20043;-74
2024/01/26 01:55:16;;;;;;;0.10;0.10;;;8.70;94.10;;;;;;4966267;28;20054;-74
2024/01/26 01:57:44;;;;;;;0.00;0.00;;;8.60;94.10;;;;;;4968510;28;20047;-72
2024/01/26 02:00:19;;;;;;;0.00;0.00;;;8.60;94.00;;;;;;4968287;28;20057;-72
2024/01/26 02:02:48;;;;;;;0.15;0.15;;;8.60;94.00;;;;;;4968256;28;20054;-71
2024/01/26 02:05:14;;;;;;;0.10;0.10;;;8.60;94.00;;;;;;4968725;28;20043;-74
2024/01/26 02:07:41;;;;;;;0.15;0.15;;;8.60;93.90;;;;;;4968354;28;20050;-74
2024/01/26 02:10:07;;;;;;;0.00;0.00;;;8.60;94.00;;;;;;4968411;28;20051;-75
2024/01/26 02:12:34;;;;;;;0.20;0.20;;;8.50;94.00;;;;;;4967561;28;20058;-74
2024/01/26 02:15:03;;;;;;;0.10;0.10;;;8.60;94.10;;;;;;4966903;28;20061;-74
2024/01/26 02:17:33;;;;;;;0.00;0.00;;;8.60;94.00;;;;;;4968500;28;20054;-74
2024/01/26 02:19:59;;;;;;;0.00;0.00;;;8.60;94.00;;;;;;4967991;28;20125;-74
2024/01/26 02:22:26;;;;;;;0.22;0.22;;;8.60;94.00;;;;;;4967660;28;20043;-73
2024/01/26 02:24:51;;;;;;;0.10;0.10;;;8.70;94.10;;;;;;4967849;28;20408;-73
2024/01/26 02:27:20;;;;;;;0.10;0.10;;;8.70;94.10;;;;;;4967309;28;20042;-74
2024/01/26 02:29:45;;;;;;;1.90;0.65;;;8.70;94.00;;;;;;4968066;28;20047;-73
2024/01/26 02:32:12;;;;;;;0.10;0.08;;;8.90;94.10;;;;;;4967802;28;20058;-74
2024/01/26 02:34:38;;;;;;;0.10;0.10;;;8.90;94.00;;;;;;4958175;28;20054;-74
2024/01/26 02:37:03;;;;;;;0.00;0.00;;;8.90;94.10;;;;;;4949064;28;20047;-74
2024/01/26 02:39:29;;;;;;;0.00;0.00;;;9.00;94.20;;;;;;4966935;28;20050;-74
2024/01/26 02:41:55;;;;;;;0.20;0.20;;;9.10;94.20;;;;;;4968205;28;20042;-74
2024/01/26 02:44:22;;;;;;;0.10;0.10;;;9.10;94.20;;;;;;4968673;28;20493;-74
2024/01/26 02:46:48;;;;;;;0.20;0.20;;;9.20;94.20;;;;;;4968810;28;20042;-74
2024/01/26 02:49:14;;;;;;;1.75;1.00;;;9.20;94.10;;;;;;4968258;28;20051;-74
2024/01/26 02:51:40;;;;;;;0.28;0.28;;;9.20;94.10;;;;;;4969000;28;20400;-74
2024/01/26 02:54:05;;;;;;;0.00;0.00;;;9.20;94.20;;;;;;4967834;28;20133;-74
2024/01/26 02:56:31;;;;;;;0.10;0.10;;;9.20;94.20;;;;;;4968420;28;20098;-74
2024/01/26 02:58:56;;;;;;;0.25;0.25;;;9.30;94.30;;;;;;4968110;28;20043;-74
2024/01/26 03:01:22;;;;;;;0.03;0.03;;;9.30;94.20;;;;;;4967646;28;20047;-74
2024/01/26 03:03:48;;;;;;;0.03;0.03;;;9.30;94.20;;;;;;4967239;28;20047;-74
2024/01/26 03:06:13;;;;;;;1.17;0.90;;;9.30;94.20;;;;;;4949224;28;20396;-74
2024/01/26 03:08:39;;;;;;;1.95;1.75;;;9.40;94.20;;;;;;4956047;28;20034;-74
2024/01/26 03:11:11;;;;;;;0.22;0.22;;;9.40;94.30;;;;;;4971642;28;20069;-74
2024/01/26 03:13:36;;;;;;;0.28;0.28;;;9.40;94.20;;;;;;4971684;28;20078;-74
2024/01/26 03:16:02;;;;;;;1.45;1.00;;;9.40;94.30;;;;;;4971855;28;20070;-74
2024/01/26 03:18:28;;;;;;;0.08;0.08;;;9.40;94.40;;;;;;4970937;28;20042;-74
2024/01/26 03:20:54;;;;;;;0.13;0.13;;;9.40;94.30;;;;;;4970717;28;20081;-74
2024/01/26 03:23:19;;;;;;;0.88;0.80;;;9.50;94.30;;;;;;4971451;28;20051;-73
2024/01/26 03:25:45;;;;;;;2.35;2.15;;;9.40;94.40;;;;;;4971414;28;20050;-74
2024/01/26 03:28:11;;;;;;;0.08;0.08;;;9.50;94.40;;;;;;4971519;28;20043;-74
2024/01/26 03:30:38;;;;;;;0.10;0.10;;;9.50;94.30;;;;;;4970577;28;20097;-74
2024/01/26 03:33:04;;;;;;;0.00;0.00;;;9.50;94.30;;;;;;4971267;28;20062;-74
2024/01/26 03:35:30;;;;;;;0.10;0.10;;;9.50;94.40;;;;;;4969703;28;20055;-74
2024/01/26 03:37:56;;;;;;;0.10;0.10;;;9.60;94.50;;;;;;4971530;28;20047;-74
2024/01/26 03:40:24;;;;;;;0.13;0.13;;;9.60;94.40;;;;;;4970675;28;20067;-73
2024/01/26 03:46:46;;;;;;;0.32;0.32;;;9.70;94.50;;;;;;4967141;28;20066;-74
2024/01/26 03:50:04;;;;;;;0.00;0.00;;;9.70;94.60;;;;;;4968087;28;20165;-74
2024/01/26 03:53:23;;;;;;;0.08;0.08;;;9.60;94.60;;;;;;4968385;28;20122;-74
2024/01/26 03:56:10;;;;;;;0.35;0.35;;;9.70;94.60;;;;;;4922706;28;20046;-74
2024/01/26 03:58:36;;;;;;;0.10;0.10;;;9.80;94.60;;;;;;4968206;28;20050;-74
2024/01/26 04:01:01;;;;;;;0.00;0.00;;;9.70;94.50;;;;;;4968012;28;20089;-74
2024/01/26 04:03:27;;;;;;;0.10;0.10;;;9.80;94.70;;;;;;4968084;28;20078;-73
2024/01/26 04:05:53;;;;;;;0.00;0.00;;;9.90;94.70;;;;;;4950819;28;20055;-74
2024/01/26 04:08:18;;;;;;;0.93;0.93;;;9.80;94.60;;;;;;4967659;28;20074;-74
2024/01/26 04:10:44;;;;;;;0.10;0.10;;;9.80;94.70;;;;;;4967229;28;20042;-74
2024/01/26 04:13:10;;;;;;;1.50;0.88;;;9.90;94.80;;;;;;4970159;28;20140;-74
2024/01/26 04:15:35;;;;;;;1.85;0.85;;;9.90;94.60;;;;;;4969125;28;20058;-74
2024/01/26 04:18:01;;;;;;;0.10;0.10;;;9.90;94.60;;;;;;4968045;28;20058;-74
2024/01/26 04:20:27;;;;;;;0.00;0.00;;;9.90;94.60;;;;;;4964118;28;20061;-74
2024/01/26 04:22:52;;;;;;;0.00;0.00;;;10.00;94.70;;;;;;4967807;28;20121;-74
2024/01/26 04:25:18;;;;;;;0.40;0.40;;;10.00;94.50;;;;;;4970006;28;20061;-74
2024/01/26 04:27:44;;;;;;;0.00;0.00;;;10.10;94.50;;;;;;4967892;28;20094;-74
2024/01/26 04:30:10;;;;;;;0.10;0.10;;;10.10;94.50;;;;;;4968189;28;20093;-74
2024/01/26 04:32:36;;;;;;;0.08;0.08;;;10.10;94.40;;;;;;4973461;28;20053;-74
2024/01/26 04:35:02;;;;;;;0.10;0.10;;;10.20;94.40;;;;;;4990312;28;20065;-74
2024/01/26 04:37:28;;;;;;;4.43;0.88;;;10.20;94.30;;;;;;4969413;28;20097;-74
2024/01/26 04:39:55;;;;;;;0.17;0.17;;;10.20;94.20;;;;;;4968229;28;20478;-74
2024/01/26 04:42:20;;;;;;;2.45;0.80;;;10.20;94.20;;;;;;4969503;28;20066;-74
2024/01/26 04:44:46;;;;;;;0.00;0.00;;;10.10;94.20;;;;;;4989364;28;20042;-74
2024/01/26 04:47:11;;;;;;;0.00;0.00;;;10.20;94.20;;;;;;4976754;28;20039;-74
2024/01/26 04:49:37;;;;;;;0.05;0.05;;;10.20;94.10;;;;;;4969453;28;20408;-74
2024/01/26 04:52:03;;;;;;;2.03;1.25;;;10.30;94.20;;;;;;4976196;28;20136;-74
2024/01/26 04:54:29;;;;;;;0.20;0.20;;;10.20;94.00;;;;;;4969055;28;20176;-74
2024/01/26 04:56:54;;;;;;;0.20;0.20;;;10.20;94.10;;;;;;4968839;28;20084;-74
2024/01/26 04:59:20;;;;;;;0.00;0.00;;;10.20;94.10;;;;;;4967570;28;20090;-74
2024/01/26 05:01:45;;;;;;;3.20;0.55;;;10.20;94.10;;;;;;4968552;28;20082;-74
2024/01/26 05:04:11;;;;;;;0.00;0.00;;;10.20;94.30;;;;;;4965205;28;20043;-74
2024/01/26 05:06:37;;;;;;;0.00;0.00;;;10.20;94.10;;;;;;4969238;28;20050;-74
2024/01/26 05:09:02;;;;;;;0.05;0.05;;;10.20;94.20;;;;;;4971217;28;20484;-74
2024/01/26 05:11:28;;;;;;;0.55;0.55;;;10.10;94.10;;;;;;4967986;28;20116;-74
2024/01/26 05:13:54;;;;;;;0.25;0.25;;;10.10;94.20;;;;;;4969142;28;20108;-74
2024/01/26 05:16:19;;;;;;;0.10;0.10;;;10.20;94.20;;;;;;4969833;28;20412;-74
2024/01/26 05:18:45;;;;;;;0.08;0.08;;;10.20;94.20;;;;;;4971098;28;20034;-75
2024/01/26 05:21:11;;;;;;;0.10;0.10;;;10.10;94.30;;;;;;4958161;28;20043;-74
2024/01/26 05:23:36;;;;;;;0.00;0.00;;;10.10;94.20;;;;;;4955520;28;20057;-74
2024/01/26 05:26:02;;;;;;;0.10;0.10;;;10.10;94.30;;;;;;4967701;28;20050;-74
2024/01/26 05:28:28;;;;;;;0.17;0.17;;;10.10;94.40;;;;;;4979766;28;20050;-74
2024/01/26 05:30:53;;;;;;;0.10;0.10;;;10.10;94.40;;;;;;4960499;28;20412;-74
2024/01/26 05:33:19;;;;;;;0.10;0.10;;;10.10;94.50;;;;;;4950534;28;20039;-74
2024/01/26 05:35:45;;;;;;;0.00;0.00;;;10.10;94.60;;;;;;4968753;28;20116;-74
2024/01/26 05:38:11;;;;;;;0.17;0.17;;;10.10;94.50;;;;;;4967285;28;20043;-74
2024/01/26 05:40:37;;;;;;;0.08;0.08;;;10.20;94.50;;;;;;4968251;28;20876;-74
2024/01/26 05:43:02;;;;;;;0.17;0.17;;;10.20;94.50;;;;;;4968795;28;20043;-74
2024/01/26 05:45:28;;;;;;;2.40;0.63;;;10.20;94.60;;;;;;4968557;28;20105;-74
2024/01/26 05:47:54;;;;;;;0.35;0.35;;;10.20;94.40;;;;;;4977550;28;20455;-74
2024/01/26 05:50:21;;;;;;;0.00;0.00;;;10.20;94.60;;;;;;4965299;28;20046;-73
2024/01/26 05:52:48;;;;;;;0.00;0.00;;;10.30;94.60;;;;;;4966666;28;20046;-74
2024/01/26 05:55:14;;;;;;;0.10;0.10;;;10.30;94.40;;;;;;4967805;28;20081;-74
2024/01/26 05:57:40;;;;;;;0.10;0.10;;;10.30;94.50;;;;;;4971154;28;20559;-74
2024/01/26 06:00:07;;;;;;;1.65;1.55;;;10.30;94.50;;;;;;4967684;28;20037;-74
2024/01/26 06:02:32;;;;;;;0.30;0.30;;;10.40;94.60;;;;;;4986410;28;20114;-75
2024/01/26 06:04:58;;;;;;;0.10;0.10;;;10.40;94.50;;;;;;4977030;28;20150;-74
2024/01/26 06:07:24;;;;;;;0.15;0.15;;;10.40;94.60;;;;;;4971564;28;20096;-75
2024/01/26 06:09:49;;;;;;;0.00;0.00;;;10.40;94.40;;;;;;4973541;28;20094;-75
2024/01/26 06:12:15;;;;;;;0.10;0.10;;;10.40;94.50;;;;;;4964143;28;20059;-75
2024/01/26 06:14:41;;;;;;;0.45;0.45;;;10.30;94.40;;;;;;4953088;28;20057;-75
2024/01/26 06:17:06;;;;;;;0.32;0.32;;;10.30;94.50;;;;;;4967013;28;20054;-75
2024/01/26 06:19:32;;;;;;;1.80;1.70;;;10.30;94.50;;;;;;4978774;28;20050;-76
2024/01/26 06:21:58;;;;;;;0.00;0.00;;;10.40;94.60;;;;;;4965861;28;20070;-76
2024/01/26 06:24:23;;;;;;;0.28;0.28;;;10.40;94.50;;;;;;4966266;28;20047;-75
2024/01/26 06:26:49;;;;;;;3.63;0.85;;;10.40;94.50;;;;;;4967402;28;20057;-76
2024/01/26 06:29:15;;;;;;;0.00;0.00;;;10.40;94.60;;;;;;4968060;28;20077;-73
2024/01/26 06:31:40;;;;;;;0.22;0.22;;;10.30;94.50;;;;;;4968960;28;20042;-73
2024/01/26 06:34:06;;;;;;;0.00;0.00;;;10.40;94.60;;;;;;4967718;28;20468;-72
2024/01/26 06:36:32;;;;;;;0.45;0.35;;;10.40;94.50;;;;;;4967067;28;20412;-70
2024/01/26 06:38:57;;;;;;;0.05;0.05;;;10.40;94.60;;;;;;4966111;28;20082;-74
2024/01/26 06:41:23;;;;;;;0.10;0.10;;;10.40;94.30;;;;;;4970847;28;20570;-73
2024/01/26 06:43:52;;;;;;;0.38;0.38;;;10.30;94.40;;;;;;4970964;28;20051;-74
2024/01/26 06:46:21;;;;;;;0.10;0.10;;;10.30;94.40;;;;;;4970305;28;20094;-73
2024/01/26 06:48:47;;;;;;;0.10;0.10;;;10.20;94.50;;;;;;4953987;28;20059;-74
2024/01/26 06:51:12;;;;;;;0.00;0.00;;;10.20;94.60;;;;;;4968418;28;20129;-73
2024/01/26 06:53:38;;;;;;;0.10;0.10;;;10.10;94.60;;;;;;4970792;28;20479;-74
2024/01/26 06:56:04;;;;;;;0.75;0.75;;;10.20;94.70;;;;;;4970825;28;20101;-73
2024/01/26 06:58:30;;;;;;;0.03;0.03;;;10.10;94.60;;;;;;4993190;28;20420;-74
2024/01/26 07:00:56;;;;;;;0.00;0.00;;;10.20;94.60;;;;;;4969750;28;20047;-74
2024/01/26 07:03:21;;;;;;;0.40;0.40;;;10.10;94.60;;;;;;4967434;28;20948;-73
2024/01/26 07:05:47;;;;;;;1.45;1.35;;;10.10;94.70;;;;;;4970855;28;20460;-74
2024/01/26 07:08:13;;;;;;;0.08;0.08;;;10.10;94.50;;;;;;4969999;28;20683;-74
2024/01/26 07:10:38;;;;;;;0.00;0.00;;;10.10;94.50;;;;;;4963957;28;20390;-74
2024/01/26 07:13:04;;;;;;;0.35;0.35;;;10.00;94.60;;;;;;4969665;28;20069;-74
2024/01/26 07:15:31;;;;;;;0.10;0.10;;;9.90;94.70;;;;;;4969229;28;20049;-74
2024/01/26 07:17:57;;;;;;;0.00;0.00;;;10.00;94.70;;;;;;4973701;28;20419;-74
2024/01/26 07:20:23;;;;;;;0.00;0.00;;;10.00;94.70;;;;;;4964670;28;20039;-75
2024/01/26 07:22:49;;;;;;;0.10;0.10;;;10.00;94.60;;;;;;4969733;28;20069;-75
2024/01/26 07:25:19;;;;;;;0.20;0.20;;;9.90;94.60;;;;;;4969703;28;20488;-74
2024/01/26 07:27:48;;;;;;;0.35;0.35;;;9.90;94.70;;;;;;4975043;28;20060;-74
2024/01/26 07:30:17;;;;;;;0.10;0.10;;;9.80;94.70;;;;;;4970176;28;20531;-75
2024/01/26 07:32:42;;;;;;;0.05;0.05;;;9.90;94.90;;;;;;4967189;28;20112;-71
2024/01/26 07:35:08;;;;;;;0.10;0.10;;;9.90;94.70;;;;;;4967213;28;20812;-73
2024/01/26 07:37:34;;;;;;;0.50;0.50;;;9.90;94.80;;;;;;4972006;28;20049;-73
2024/01/26 07:40:04;;;;;;;0.47;0.38;;;9.90;94.90;;;;;;4976722;28;20038;-73
2024/01/26 07:42:33;;;;;;;0.10;0.10;;;9.90;94.80;;;;;;4977109;28;20042;-73
2024/01/26 07:44:58;;;;;;;0.10;0.10;;;10.00;95.00;;;;;;4978978;28;20043;-74
2024/01/26 07:47:24;;;;;;;3.92;0.65;;;10.00;94.80;;;;;;4978108;28;20777;-73
2024/01/26 07:49:50;;;;;;;0.10;0.10;;;10.00;94.90;;;;;;4978276;28;20052;-77
2024/01/26 07:52:16;;;;;;;0.10;0.10;;;10.00;94.90;;;;;;4976374;28;20043;-75
2024/01/26 07:54:42;;;;;;;0.00;0.00;;;10.00;94.90;;;;;;4975929;28;20113;-74
2024/01/26 07:57:08;;;;;;;0.00;0.00;;;10.10;94.90;;;;;;4975585;28;20053;-74
2024/01/26 07:59:34;;;;;;;0.00;0.00;;;10.10;95.00;;;;;;4976200;28;20050;-74
2024/01/26 08:01:59;;;;;;;0.00;0.00;;;10.20;94.90;;;;;;4974810;28;20045;-73
2024/01/26 08:04:25;;;;;;;0.05;0.05;;;10.30;95.00;;;;;;4974734;28;20615;-73
2024/01/26 08:06:51;;;;;;;0.10;0.10;;;10.30;94.90;;;;;;4976889;28;20447;-74
2024/01/26 08:09:17;;;;;;;0.05;0.05;;;10.50;95.00;;;;;;4977388;28;20046;-74
2024/01/26 08:11:43;;;;;;;0.10;0.10;;;10.50;94.70;;;;;;4991829;28;20055;-74
2024/01/26 08:14:09;;;;;;;1.35;1.10;;;10.50;94.70;;;;;;4976180;28;21803;-74
2024/01/26 08:16:35;;;;;;;0.00;0.00;;;10.50;94.70;;;;;;4977292;28;20046;-74
2024/01/26 08:19:02;;;;;;;1.17;1.17;;;10.50;94.60;;;;;;4992579;28;20050;-74
2024/01/26 08:21:27;;;;;;;0.80;0.70;;;10.50;94.40;;;;;;4980727;28;20187;-74
2024/01/26 08:23:53;;;;;;;0.70;0.70;;;10.60;94.50;;;;;;4977163;28;20137;-73
2024/01/26 08:26:18;;;;;;;0.00;0.00;;;10.50;94.40;;;;;;4976973;28;20050;-74
2024/01/26 08:28:45;;;;;;;0.00;0.00;;;10.60;94.10;;;;;;4977337;28;20046;-74
2024/01/26 08:31:10;;;;;;;0.10;0.10;;;10.50;94.30;;;;;;4974534;28;20074;-74
2024/01/26 08:33:36;;;;;;;0.00;0.00;;;10.50;94.10;;;;;;4975610;28;20085;-74
2024/01/26 08:36:02;;;;;;;0.20;0.20;;;10.40;94.00;;;;;;4975852;28;20038;-74
2024/01/26 08:38:28;;;;;;;4.50;1.65;;;10.40;94.00;;;;;;4976244;28;20041;-74
2024/01/26 08:40:53;;;;;;;0.30;0.30;;;10.50;94.00;;;;;;4976667;28;20039;-73
2024/01/26 08:43:19;;;;;;;0.00;0.00;;;10.40;93.70;;;;;;4975714;28;20056;-73
2024/01/26 08:45:45;;;;;;;0.00;0.00;;;10.50;93.90;;;;;;4978258;28;20081;-73
2024/01/26 08:48:11;;;;;;;0.50;0.43;;;10.50;93.80;;;;;;4977714;28;20046;-73
2024/01/26 08:50:38;;;;;;;0.10;0.10;;;10.50;94.00;;;;;;4975688;28;20158;-72
2024/01/26 08:53:04;;;;;;;0.00;0.00;;;10.50;93.40;;;;;;4977385;28;20530;-72
2024/01/26 08:55:30;;;;;;;0.00;0.00;;;10.10;91.90;;;;;;4976627;28;20046;-73
2024/01/26 08:57:56;;;;;;;0.00;0.00;;;9.60;90.80;;;;;;4976863;28;20058;-73
2024/01/26 09:00:22;;;;;;;0.10;0.10;;;9.60;90.70;;;;;;4977502;28;20055;-74
2024/01/26 09:02:47;;;;;;;0.00;0.00;;;9.50;90.70;;;;;;4975259;28;20047;-73
2024/01/26 09:05:14;;;;;;;0.00;0.00;;;9.40;89.90;;;;;;4976157;28;20133;-74
2024/01/26 09:07:39;;;;;;;0.00;0.00;;;9.30;89.90;;;;;;4976781;28;20047;-73
2024/01/26 09:10:06;;;;;;;0.00;0.00;;;9.30;89.90;;;;;;4992448;28;20047;-73
2024/01/26 09:12:32;;;;;;;0.00;0.00;;;9.20;88.80;;;;;;4976014;28;20050;-73
2024/01/26 09:14:58;;;;;;;0.00;0.00;;;9.20;88.40;;;;;;4972491;28;20050;-73
2024/01/26 09:17:25;;;;;;;0.13;0.13;;;9.20;87.80;;;;;;4975429;28;20496;-73
2024/01/26 09:19:50;;;;;;;0.60;0.60;;;9.30;87.00;;;;;;4976317;28;20104;-73
2024/01/26 09:22:16;;;;;;;0.00;0.00;;;9.10;87.10;;;;;;4981354;28;20050;-74
2024/01/26 09:24:42;;;;;;;0.00;0.00;;;9.10;86.90;;;;;;4975820;28;20035;-74
2024/01/26 09:27:07;;;;;;;0.00;0.00;;;9.10;86.80;;;;;;4973779;28;20396;-74
2024/01/26 09:29:33;;;;;;;0.50;0.50;;;9.00;86.80;;;;;;4973598;28;20088;-73
2024/01/26 09:31:59;;;;;;;0.00;0.00;;;9.00;86.90;;;;;;4965871;28;20683;-72
2024/01/26 09:34:25;;;;;;;0.00;0.00;;;9.10;86.80;;;;;;4959409;28;20530;-72
2024/01/26 09:36:51;;;;;;;0.00;0.00;;;9.10;86.70;;;;;;4958675;28;20554;-74
2024/01/26 09:39:17;;;;;;;1.98;1.65;;;8.90;87.00;;;;;;4965295;28;20070;-73
2024/01/26 09:41:43;;;;;;;0.00;0.00;;;9.00;87.30;;;;;;4966689;28;20085;-73
2024/01/26 09:44:10;;;;;;;0.52;0.52;;;8.90;87.40;;;;;;4961362;28;20050;-73
2024/01/26 09:46:36;;;;;;;0.00;0.00;;;8.80;87.60;;;;;;4954727;28;20528;-74
2024/01/26 09:49:06;;;;;;;0.35;0.35;;;8.90;87.60;;;;;;4962068;28;20125;-72
2024/01/26 09:51:32;;;;;;;0.00;0.00;;;8.80;88.30;;;;;;4966859;28;20055;-74
2024/01/26 09:54:00;;;;;;;0.10;0.10;;;8.90;88.10;;;;;;4967163;28;20436;-74
2024/01/26 09:56:28;;;;;;;0.00;0.00;;;8.90;88.00;;;;;;4981066;28;20062;-74
2024/01/26 09:58:54;;;;;;;4.95;1.98;;;8.80;87.90;;;;;;4973350;28;20046;-74
2024/01/26 10:01:21;;;;;;;0.08;0.08;;;8.80;87.70;;;;;;4968080;28;20416;-74
2024/01/26 10:03:48;;;;;;;0.00;0.00;;;8.80;86.80;;;;;;4981387;28;20058;-74
2024/01/26 10:06:14;;;;;;;0.00;0.00;;;8.80;86.50;;;;;;4986869;28;20050;-75
2024/01/26 10:08:41;;;;;;;0.00;0.00;;;8.90;86.40;;;;;;4974831;28;20125;-75
2024/01/26 10:11:07;;;;;;;0.05;0.05;;;8.90;85.70;;;;;;4980520;28;20888;-75
2024/01/26 10:13:33;;;;;;;0.00;0.00;;;8.80;85.50;;;;;;4987870;28;20046;-74
2024/01/26 10:16:10;;;;;;;0.20;0.20;;;8.70;85.40;;;;;;4980988;28;20117;-75
2024/01/26 10:18:43;;;;;;;0.00;0.00;;;8.80;84.00;;;;;;4983401;28;20043;-74
2024/01/26 10:21:13;;;;;;;0.05;0.05;;;8.80;84.10;;;;;;4982092;28;20508;-74
2024/01/26 10:23:40;;;;;;;0.00;0.00;;;8.80;84.00;;;;;;4969516;28;20797;-75
2024/01/26 10:26:06;;;;;;;0.10;0.10;;;8.80;83.60;;;;;;4967865;28;20492;-71
2024/01/26 10:28:32;;;;;;;0.30;0.30;;;8.70;83.60;;;;;;4968084;28;20101;-74
2024/01/26 10:30:58;;;;;;;0.52;0.47;;;8.60;83.50;;;;;;4968077;28;20069;-73
2024/01/26 10:33:24;;;;;;;0.25;0.25;;;8.60;83.60;;;;;;4967051;28;20841;-74
2024/01/26 10:35:58;;;;;;;0.30;0.30;;;8.60;83.50;;;;;;4982638;28;20047;-74
2024/01/26 10:38:25;;;;;;;0.15;0.15;;;8.60;83.30;;;;;;4967826;28;20767;-74
2024/01/26 10:40:55;;;;;;;1.55;0.75;;;8.60;83.70;;;;;;4967447;28;20047;-75
2024/01/26 10:43:22;;;;;;;0.00;0.00;;;8.60;82.50;;;;;;4981755;28;20050;-74
2024/01/26 10:45:48;;;;;;;0.20;0.20;;;8.60;82.80;;;;;;4969867;28;20111;-74
2024/01/26 10:48:16;;;;;;;0.00;0.00;;;8.70;82.50;;;;;;4983375;28;20047;-73
2024/01/26 10:50:41;;;;;;;0.00;0.00;;;8.60;82.90;;;;;;4978259;28;20053;-74
2024/01/26 10:53:07;;;;;;;0.17;0.17;;;8.60;83.10;;;;;;4965309;28;20774;-72
2024/01/26 10:55:35;;;;;;;0.10;0.10;;;8.60;83.40;;;;;;4968407;28;20101;-73
2024/01/26 10:58:02;;;;;;;0.47;0.47;;;8.60;83.30;;;;;;4967521;28;20420;-73
2024/01/26 11:00:28;;;;;;;1.75;1.35;;;8.60;82.50;;;;;;4967608;28;20062;-73
2024/01/26 11:02:54;;;;;;;0.47;0.47;;;8.50;82.70;;;;;;4962409;28;20571;-72
2024/01/26 11:05:20;;;;;;;0.00;0.00;;;8.50;82.60;;;;;;4967608;28;20057;-72
2024/01/26 11:07:47;;;;;;;0.10;0.10;;;8.50;81.60;;;;;;4968034;28;20467;-73
2024/01/26 11:10:28;;;;;;;0.00;0.00;;;8.60;82.10;;;;;;4967940;28;20043;-73
2024/01/26 11:13:02;;;;;;;0.00;0.00;;;8.50;82.00;;;;;;4961517;28;20058;-74
2024/01/26 11:15:29;;;;;;;0.00;0.00;;;8.50;82.40;;;;;;4959670;28;20039;-73
2024/01/26 11:17:59;;;;;;;0.00;0.00;;;8.60;81.30;;;;;;4968430;28;20608;-74
2024/01/26 11:20:28;;;;;;;0.00;0.00;;;8.50;81.90;;;;;;4966046;28;20046;-73
2024/01/26 11:23:08;;;;;;;0.68;0.68;;;8.50;82.20;;;;;;4961902;28;20511;-71
2024/01/26 11:25:40;;;;;;;0.00;0.00;;;8.50;80.80;;;;;;4971712;28;20579;-73
2024/01/26 11:28:06;;;;;;;;;;;8.40;81.60;;;;;;4974585;28;20051;-72
2024/01/26 11:30:32;;;;;;;0.10;0.10;;;8.50;82.00;;;;;;4976671;28;20028;-72
2024/01/26 11:32:58;;;;;;;3.20;2.92;;;8.50;82.00;;;;;;4971780;28;20065;-71
2024/01/26 11:35:24;;;;;;;3.13;2.85;;;8.40;81.70;;;;;;4969906;28;20050;-73
2024/01/26 11:37:56;;;;;;;0.45;0.45;;;8.30;81.50;;;;;;4974922;28;20039;-73
2024/01/26 11:40:25;;;;;;;0.10;0.10;;;8.40;81.70;;;;;;4969444;28;20043;-72
2024/01/26 11:42:51;;;;;;;0.10;0.10;;;8.30;82.10;;;;;;4965247;28;20130;-73
2024/01/26 11:45:42;;;;;;;0.10;0.10;;;8.30;82.00;;;;;;4969851;28;20500;-73
2024/01/26 11:48:08;;;;;;;0.00;0.00;;;8.20;82.10;;;;;;4976823;28;20050;-73
2024/01/26 11:50:36;;;;;;;0.10;0.10;;;8.20;82.30;;;;;;4978580;28;20914;-73
2024/01/26 11:53:02;;;;;;;0.80;0.80;;;8.10;81.90;;;;;;4978312;28;20104;-73
2024/01/26 11:55:29;;;;;;;0.08;0.08;;;8.20;82.20;;;;;;4975941;28;20039;-73
2024/01/26 11:57:55;;;;;;;0.00;0.00;;;8.20;81.50;;;;;;4969032;28;20061;-73
2024/01/26 12:00:21;;;;;;;3.50;2.88;;;8.30;82.00;;;;;;4979188;28;20813;-73
2024/01/26 12:02:48;;;;;;;0.10;0.10;;;8.10;82.10;;;;;;4978020;28;20046;-72
2024/01/26 12:05:16;;;;;;;0.03;0.03;;;8.30;82.00;;;;;;4976251;28;20512;-72
2024/01/26 12:07:41;;;;;;;0.00;0.00;;;8.20;81.50;;;;;;4980609;28;20114;-72
2024/01/26 12:10:09;;;;;;;0.10;0.10;;;8.30;81.20;;;;;;4969203;28;20122;-72
2024/01/26 12:12:35;;;;;;;0.47;0.47;;;8.20;81.20;;;;;;4968265;28;20050;-72
2024/01/26 12:15:03;;;;;;;0.40;0.40;;;8.30;81.30;;;;;;4975590;28;20042;-71
2024/01/26 12:17:28;;;;;;;0.00;0.00;;;8.30;81.50;;;;;;4980555;28;20050;-72
2024/01/26 12:19:55;;;;;;;0.30;0.30;;;8.20;81.30;;;;;;4977290;28;20121;-72
2024/01/26 12:22:20;;;;;;;0.38;0.38;;;8.30;80.90;;;;;;4977473;28;20085;-72
2024/01/26 12:24:46;;;;;;;0.28;0.28;;;8.30;81.20;;;;;;4971860;28;20047;-73
2024/01/26 12:27:12;;;;;;;0.10;0.10;;;8.30;81.50;;;;;;4957503;28;20423;-72
2024/01/26 12:29:37;;;;;;;0.75;0.75;;;8.30;82.20;;;;;;4967696;28;20058;-74
2024/01/26 12:32:10;;;;;;;0.10;0.10;;;8.30;83.60;;;;;;4976638;28;20709;-74
2024/01/26 12:34:40;;;;;;;0.00;0.00;;;8.20;84.70;;;;;;4974432;28;20055;-74
2024/01/26 12:37:09;;;;;;;0.10;0.10;;;7.80;86.20;;;;;;4976747;28;20081;-73
2024/01/26 12:39:35;;;;;;;0.10;0.10;;;7.50;86.40;;;;;;4975951;28;20053;-73
2024/01/26 12:42:01;;;;;;;1.00;1.00;;;7.30;87.00;;;;;;4989797;28;20055;-74
2024/01/26 12:44:31;;;;;;;0.10;0.10;;;7.30;87.50;;;;;;4975421;28;20050;-73
2024/01/26 12:46:58;;;;;;;0.00;0.00;;;7.30;88.00;;;;;;4973987;28;20097;-74
2024/01/26 12:49:24;;;;;;;0.10;0.10;;;7.20;88.50;;;;;;4974982;28;20476;-75
2024/01/26 12:51:54;;;;;;;0.20;0.20;;;7.20;87.80;;;;;;4976343;28;20508;-72
2024/01/26 12:54:20;;;;;;;0.00;0.00;;;7.10;87.50;;;;;;4972551;28;20057;-75